createdAt,value
2024-02-24T00:00:04.640Z,99215.59
2024-02-24T00:00:36.719Z,99214.78
2024-02-24T00:01:09.043Z,99218.50
2024-02-24T00:01:41.111Z,99213.13
2024-02-24T00:02:13.363Z,99218.22
2024-02-24T00:02:45.397Z,99216.44
2024-02-24T00:03:18.453Z,99214.63
2024-02-24T00:03:51.437Z,99215.75
2024-02-24T00:04:23.448Z,99216.56
2024-02-24T00:04:55.646Z,99215.59
2024-02-24T00:05:27.777Z,99207.75
2024-02-24T00:06:02.611Z,99209.38
2024-02-24T00:06:34.916Z,99216.16
2024-02-24T00:07:07.160Z,99213.53
2024-02-24T00:07:39.303Z,99215.31
2024-02-24T00:08:11.297Z,99211.19
2024-02-24T00:08:43.579Z,99215.59
2024-02-24T00:09:16.033Z,99216.44
2024-02-24T00:09:48.122Z,99217.53
2024-02-24T00:10:20.744Z,99220.56
2024-02-24T00:10:52.735Z,99218.75
2024-02-24T00:11:24.855Z,99219.72
2024-02-24T00:11:58.362Z,99220.44
2024-02-24T00:12:30.419Z,99215.00
2024-02-24T00:13:02.468Z,99227.84
2024-02-24T00:13:34.410Z,99225.22
2024-02-24T00:14:06.492Z,99226.19
2024-02-24T00:14:38.598Z,99214.06
2024-02-24T00:15:11.336Z,99221.78
2024-02-24T00:15:43.483Z,99219.00
2024-02-24T00:16:16.842Z,99226.75
2024-02-24T00:16:48.959Z,99228.41
2024-02-24T00:17:20.985Z,99228.41
2024-02-24T00:17:53.069Z,99223.84
2024-02-24T00:18:25.156Z,99226.56
2024-02-24T00:18:57.268Z,99229.19
2024-02-24T00:19:29.346Z,99216.38
2024-02-24T00:20:01.733Z,99215.41
2024-02-24T00:20:33.796Z,99216.25
2024-02-24T00:21:05.917Z,99214.44
2024-02-24T00:21:38.076Z,99219.69
2024-02-24T00:22:10.143Z,99218.03
2024-02-24T00:22:42.149Z,99219.84
2024-02-24T00:23:14.237Z,99220.53
2024-02-24T00:23:46.283Z,99223.84
2024-02-24T00:24:18.434Z,99209.91
2024-02-24T00:24:50.423Z,99221.47
2024-02-24T00:25:22.462Z,99226.88
2024-02-24T00:25:54.469Z,99217.34
2024-02-24T00:26:26.441Z,99216.38
2024-02-24T00:26:59.834Z,99220.78
2024-02-24T00:27:32.202Z,99218.84
2024-02-24T00:28:04.963Z,99227.69
2024-02-24T00:28:36.979Z,99216.22
2024-02-24T00:29:08.991Z,99226.69
2024-02-24T00:29:41.150Z,99221.31
2024-02-24T00:30:13.918Z,99217.19
2024-02-24T00:30:45.890Z,99222.28
2024-02-24T00:31:18.151Z,99215.53
2024-02-24T00:31:50.148Z,99225.06
2024-02-24T00:32:22.353Z,99219.00
2024-02-24T00:32:54.422Z,99216.91
2024-02-24T00:33:26.697Z,99225.06
2024-02-24T00:33:58.782Z,99219.81
2024-02-24T00:34:30.824Z,99217.19
2024-02-24T00:35:03.137Z,99222.59
2024-02-24T00:35:35.349Z,99220.91
2024-02-24T00:36:07.767Z,99221.22
2024-02-24T00:36:39.852Z,99223.16
2024-02-24T00:37:11.983Z,99227.16
2024-02-24T00:37:44.082Z,99222.88
2024-02-24T00:38:16.180Z,99222.44
2024-02-24T00:38:48.631Z,99224.94
2024-02-24T00:39:20.677Z,99224.69
2024-02-24T00:39:52.823Z,99221.22
2024-02-24T00:40:25.285Z,99228.13
2024-02-24T00:40:57.361Z,99221.75
2024-02-24T00:41:29.406Z,99224.53
2024-02-24T00:42:03.075Z,99221.91
2024-02-24T00:42:35.211Z,99221.75
2024-02-24T00:43:07.290Z,99225.63
2024-02-24T00:43:39.239Z,99228.41
2024-02-24T00:44:11.278Z,99221.50
2024-02-24T00:44:43.397Z,99226.88
2024-02-24T00:45:15.638Z,99222.31
2024-02-24T00:45:47.703Z,99223.28
2024-02-24T00:46:20.162Z,99223.28
2024-02-24T00:46:52.169Z,99223.16
2024-02-24T00:47:24.228Z,99225.78
2024-02-24T00:47:56.531Z,99223.16
2024-02-24T00:48:28.875Z,99229.34
2024-02-24T00:49:00.916Z,99221.50
2024-02-24T00:49:33.046Z,99226.56
2024-02-24T00:50:06.043Z,99224.94
2024-02-24T00:50:38.225Z,99232.41
2024-02-24T00:51:10.362Z,99226.34
2024-02-24T00:51:42.454Z,99234.22
2024-02-24T00:52:14.495Z,99223.00
2024-02-24T00:52:46.659Z,99229.19
2024-02-24T00:53:18.657Z,99226.75
2024-02-24T00:53:51.107Z,99230.88
2024-02-24T00:54:23.145Z,99223.00
2024-02-24T00:54:55.173Z,99223.72
2024-02-24T00:55:27.265Z,99229.78
2024-02-24T00:55:59.311Z,99229.78
2024-02-24T00:56:31.429Z,99227.97
2024-02-24T00:57:05.338Z,99223.41
2024-02-24T00:57:37.457Z,99221.63
2024-02-24T00:58:09.516Z,99228.38
2024-02-24T00:58:44.572Z,99227.41
2024-02-24T00:59:16.742Z,99218.84
2024-02-24T00:59:48.763Z,99220.66
2024-02-24T01:00:21.359Z,99219.00
2024-02-24T01:00:53.387Z,99218.03
2024-02-24T01:01:25.468Z,99224.25
2024-02-24T01:01:57.516Z,99219.13
2024-02-24T01:02:29.605Z,99219.00
2024-02-24T01:03:01.612Z,99215.69
2024-02-24T01:03:33.684Z,99214.44
2024-02-24T01:04:05.780Z,99216.50
2024-02-24T01:04:38.106Z,99219.28
2024-02-24T01:05:10.308Z,99212.22
2024-02-24T01:05:42.684Z,99213.22
2024-02-24T01:06:14.797Z,99213.06
2024-02-24T01:06:46.809Z,99212.09
2024-02-24T01:07:19.408Z,99207.53
2024-02-24T01:07:54.578Z,99209.34
2024-02-24T01:08:26.614Z,99207.53
2024-02-24T01:08:58.706Z,99207.25
2024-02-24T01:09:30.716Z,99206.13
2024-02-24T01:10:02.938Z,99210.69
2024-02-24T01:10:34.931Z,99211.78
2024-02-24T01:11:07.555Z,99205.06
2024-02-24T01:11:39.813Z,99202.44
2024-02-24T01:12:13.424Z,99201.72
2024-02-24T01:12:45.486Z,99202.72
2024-02-24T01:13:17.535Z,99199.41
2024-02-24T01:13:49.626Z,99194.16
2024-02-24T01:14:21.843Z,99196.09
2024-02-24T01:14:55.986Z,99190.84
2024-02-24T01:15:29.865Z,99198.84
2024-02-24T01:16:01.861Z,99193.59
2024-02-24T01:16:33.869Z,99196.09
2024-02-24T01:17:06.013Z,99196.66
2024-02-24T01:17:38.243Z,99195.38
2024-02-24T01:18:10.873Z,99192.91
2024-02-24T01:18:43.045Z,99190.13
2024-02-24T01:19:15.156Z,99190.13
2024-02-24T01:19:47.494Z,99189.63
2024-02-24T01:20:19.510Z,99197.19
2024-02-24T01:20:51.923Z,99194.25
2024-02-24T01:21:23.959Z,99189.19
2024-02-24T01:21:58.555Z,99193.59
2024-02-24T01:22:30.720Z,99190.97
2024-02-24T01:23:02.787Z,99191.94
2024-02-24T01:23:34.799Z,99187.94
2024-02-24T01:24:07.077Z,99188.78
2024-02-24T01:24:39.131Z,99192.38
2024-02-24T01:25:11.131Z,99190.56
2024-02-24T01:25:44.910Z,99187.94
2024-02-24T01:26:16.907Z,99192.06
2024-02-24T01:26:48.954Z,99192.91
2024-02-24T01:27:22.511Z,99187.81
2024-02-24T01:27:54.834Z,99198.44
2024-02-24T01:28:27.084Z,99191.41
2024-02-24T01:28:59.176Z,99193.72
2024-02-24T01:29:32.009Z,99193.88
2024-02-24T01:30:04.476Z,99192.22
2024-02-24T01:30:36.453Z,99192.22
2024-02-24T01:31:08.483Z,99199.41
2024-02-24T01:31:40.823Z,99195.97
2024-02-24T01:32:12.900Z,99205.59
2024-02-24T01:32:45.356Z,99199.69
2024-02-24T01:33:17.610Z,99198.19
2024-02-24T01:33:49.771Z,99198.19
2024-02-24T01:34:21.940Z,99191.13
2024-02-24T01:34:54.067Z,99196.34
2024-02-24T01:35:26.101Z,99198.00
2024-02-24T01:35:58.121Z,99198.00
2024-02-24T01:36:30.228Z,99188.66
2024-02-24T01:37:02.337Z,99198.44
2024-02-24T01:37:34.431Z,99201.25
2024-02-24T01:38:06.905Z,99200.53
2024-02-24T01:38:38.915Z,99196.13
2024-02-24T01:39:11.109Z,99201.38
2024-02-24T01:39:43.145Z,99196.13
2024-02-24T01:40:15.510Z,99196.97
2024-02-24T01:40:47.600Z,99195.47
2024-02-24T01:41:19.639Z,99190.88
2024-02-24T01:41:51.704Z,99200.41
2024-02-24T01:42:25.129Z,99200.53
2024-02-24T01:42:57.265Z,99197.09
2024-02-24T01:43:29.831Z,99200.84
2024-02-24T01:44:01.924Z,99205.25
2024-02-24T01:44:33.992Z,99201.50
2024-02-24T01:45:07.293Z,99196.13
2024-02-24T01:45:39.560Z,99200.09
2024-02-24T01:46:11.681Z,99199.97
2024-02-24T01:46:43.944Z,99197.19
2024-02-24T01:47:15.975Z,99199.69
2024-02-24T01:47:48.285Z,99191.94
2024-02-24T01:48:20.560Z,99196.34
2024-02-24T01:48:52.966Z,99192.78
2024-02-24T01:49:25.346Z,99191.13
2024-02-24T01:49:58.953Z,99196.09
2024-02-24T01:50:31.347Z,99194.31
2024-02-24T01:51:03.813Z,99196.91
2024-02-24T01:51:35.910Z,99188.78
2024-02-24T01:52:08.774Z,99196.66
2024-02-24T01:52:41.641Z,99183.00
2024-02-24T01:53:15.528Z,99187.28
2024-02-24T01:53:48.301Z,99194.34
2024-02-24T01:54:20.618Z,99187.59
2024-02-24T01:54:55.817Z,99186.59
2024-02-24T01:55:28.273Z,99186.59
2024-02-24T01:56:02.217Z,99184.28
2024-02-24T01:56:36.256Z,99194.22
2024-02-24T01:57:10.732Z,99192.56
2024-02-24T01:57:44.965Z,99193.94
2024-02-24T01:58:18.993Z,99192.69
2024-02-24T01:58:51.112Z,99190.06
2024-02-24T01:59:23.233Z,99190.06
2024-02-24T01:59:55.542Z,99191.84
2024-02-24T02:00:27.836Z,99193.81
2024-02-24T02:01:00.303Z,99197.25
2024-02-24T02:01:32.841Z,99192.69
2024-02-24T02:02:04.888Z,99185.78
2024-02-24T02:02:38.477Z,99195.59
2024-02-24T02:03:10.864Z,99189.38
2024-02-24T02:03:43.719Z,99193.63
2024-02-24T02:04:15.724Z,99195.47
2024-02-24T02:04:47.946Z,99192.69
2024-02-24T02:05:20.329Z,99199.59
2024-02-24T02:05:52.422Z,99195.88
2024-02-24T02:06:25.648Z,99198.34
2024-02-24T02:06:59.693Z,99192.97
2024-02-24T02:07:32.164Z,99204.97
2024-02-24T02:08:04.852Z,99208.72
2024-02-24T02:08:36.904Z,99202.22
2024-02-24T02:09:08.902Z,99195.06
2024-02-24T02:09:54.362Z,99206.63
2024-02-24T02:10:26.461Z,99198.31
2024-02-24T02:10:58.569Z,99202.59
2024-02-24T02:11:30.756Z,99199.81
2024-02-24T02:12:04.015Z,99188.69
2024-02-24T02:12:36.620Z,99196.19
2024-02-24T02:13:10.018Z,99193.09
2024-02-24T02:13:42.026Z,99202.19
2024-02-24T02:14:14.153Z,99194.63
2024-02-24T02:14:46.179Z,99198.34
2024-02-24T02:15:18.260Z,99204.72
2024-02-24T02:15:52.258Z,99198.88
2024-02-24T02:16:24.482Z,99197.38
2024-02-24T02:16:56.527Z,99198.09
2024-02-24T02:17:28.706Z,99198.63
2024-02-24T02:18:01.248Z,99194.72
2024-02-24T02:18:35.574Z,99192.09
2024-02-24T02:19:08.203Z,99203.44
2024-02-24T02:19:40.458Z,99199.53
2024-02-24T02:20:12.480Z,99202.72
2024-02-24T02:20:46.129Z,99201.59
2024-02-24T02:21:19.380Z,99196.66
2024-02-24T02:21:54.737Z,99204.91
2024-02-24T02:22:28.325Z,99198.97
2024-02-24T02:23:00.343Z,99204.22
2024-02-24T02:23:32.400Z,99210.28
2024-02-24T02:24:05.142Z,99207.97
2024-02-24T02:24:37.641Z,99213.34
2024-02-24T02:25:09.836Z,99213.88
2024-02-24T02:25:42.020Z,99210.28
2024-02-24T02:26:14.065Z,99213.06
2024-02-24T02:26:46.157Z,99217.34
2024-02-24T02:27:18.206Z,99215.25
2024-02-24T02:27:50.229Z,99219.41
2024-02-24T02:28:22.486Z,99221.72
2024-02-24T02:28:54.448Z,99224.03
2024-02-24T02:29:26.427Z,99216.84
2024-02-24T02:29:58.366Z,99224.72
2024-02-24T02:30:30.484Z,99223.75
2024-02-24T02:31:02.484Z,99220.97
2024-02-24T02:31:34.511Z,99221.81
2024-02-24T02:32:06.985Z,99221.13
2024-02-24T02:32:39.176Z,99221.81
2024-02-24T02:33:11.369Z,99225.09
2024-02-24T02:33:43.612Z,99229.25
2024-02-24T02:34:15.846Z,99224.00
2024-02-24T02:34:47.889Z,99228.13
2024-02-24T02:35:19.960Z,99220.53
2024-02-24T02:35:52.048Z,99227.06
2024-02-24T02:36:24.490Z,99232.84
2024-02-24T02:36:56.477Z,99227.41
2024-02-24T02:37:29.858Z,99222.72
2024-02-24T02:38:01.937Z,99227.97
2024-02-24T02:38:34.054Z,99220.09
2024-02-24T02:39:06.034Z,99225.06
2024-02-24T02:39:38.291Z,99217.19
2024-02-24T02:40:10.774Z,99220.63
2024-02-24T02:40:43.406Z,99224.09
2024-02-24T02:41:15.539Z,99215.09
2024-02-24T02:41:47.773Z,99219.63
2024-02-24T02:42:20.034Z,99221.22
2024-02-24T02:42:52.004Z,99223.69
2024-02-24T02:43:24.101Z,99221.47
2024-02-24T02:43:56.148Z,99227.50
2024-02-24T02:44:28.225Z,99219.81
2024-02-24T02:45:00.813Z,99225.59
2024-02-24T02:45:32.777Z,99233.59
2024-02-24T02:46:05.033Z,99232.50
2024-02-24T02:46:37.136Z,99228.19
2024-02-24T02:47:17.183Z,99228.78
2024-02-24T02:47:52.025Z,99234.03
2024-02-24T02:48:24.438Z,99230.44
2024-02-24T02:48:56.661Z,99230.81
2024-02-24T02:49:28.896Z,99232.06
2024-02-24T02:50:01.298Z,99229.56
2024-02-24T02:50:33.287Z,99231.34
2024-02-24T02:51:05.498Z,99230.38
2024-02-24T02:51:37.646Z,99225.97
2024-02-24T02:52:09.634Z,99233.16
2024-02-24T02:52:42.945Z,99230.53
2024-02-24T02:53:14.942Z,99235.78
2024-02-24T02:53:47.204Z,99230.53
2024-02-24T02:54:19.290Z,99227.91
2024-02-24T02:54:51.334Z,99233.84
2024-02-24T02:55:23.352Z,99232.31
2024-02-24T02:55:55.343Z,99238.69
2024-02-24T02:56:27.370Z,99234.28
2024-02-24T02:57:00.045Z,99234.28
2024-02-24T02:57:32.385Z,99243.00
2024-02-24T02:58:04.646Z,99242.56
2024-02-24T02:58:36.724Z,99243.06
2024-02-24T02:59:08.794Z,99246.50
2024-02-24T02:59:41.276Z,99247.50
2024-02-24T03:00:14.289Z,99240.28
2024-02-24T03:00:46.727Z,99245.53
2024-02-24T03:01:18.880Z,99237.53
2024-02-24T03:01:51.241Z,99248.53
2024-02-24T03:02:23.296Z,99247.72
2024-02-24T03:02:55.371Z,99248.69
2024-02-24T03:03:27.549Z,99249.69
2024-02-24T03:03:59.653Z,99248.16
2024-02-24T03:04:32.234Z,99259.19
2024-02-24T03:05:04.848Z,99252.31
2024-02-24T03:05:37.060Z,99246.88
2024-02-24T03:06:11.071Z,99250.22
2024-02-24T03:06:43.148Z,99246.59
2024-02-24T03:07:15.347Z,99253.66
2024-02-24T03:07:48.745Z,99255.28
2024-02-24T03:08:20.723Z,99256.28
2024-02-24T03:08:56.663Z,99252.66
2024-02-24T03:09:29.096Z,99250.72
2024-02-24T03:10:01.147Z,99248.25
2024-02-24T03:10:33.261Z,99246.59
2024-02-24T03:11:05.641Z,99256.44
2024-02-24T03:11:37.877Z,99254.09
2024-02-24T03:12:10.056Z,99256.88
2024-02-24T03:12:42.178Z,99252.56
2024-02-24T03:13:14.230Z,99251.22
2024-02-24T03:13:46.266Z,99258.28
2024-02-24T03:14:18.528Z,99251.38
2024-02-24T03:14:50.586Z,99250.13
2024-02-24T03:15:22.616Z,99262.25
2024-02-24T03:15:54.803Z,99261.16
2024-02-24T03:16:26.936Z,99252.44
2024-02-24T03:16:59.196Z,99251.47
2024-02-24T03:17:31.283Z,99265.25
2024-02-24T03:18:03.716Z,99267.06
2024-02-24T03:18:35.829Z,99265.44
2024-02-24T03:19:09.311Z,99266.09
2024-02-24T03:19:46.130Z,99268.59
2024-02-24T03:20:18.165Z,99267.44
2024-02-24T03:20:50.556Z,99274.66
2024-02-24T03:21:26.441Z,99271.97
2024-02-24T03:21:58.784Z,99273.63
2024-02-24T03:22:30.834Z,99274.59
2024-02-24T03:23:04.571Z,99278.75
2024-02-24T03:23:37.996Z,99274.28
2024-02-24T03:24:10.268Z,99279.69
2024-02-24T03:24:42.580Z,99276.38
2024-02-24T03:25:14.602Z,99274.28
2024-02-24T03:25:46.620Z,99281.06
2024-02-24T03:26:18.738Z,99291.38
2024-02-24T03:26:50.720Z,99287.81
2024-02-24T03:27:23.042Z,99291.13
2024-02-24T03:28:04.091Z,99290.13
2024-02-24T03:28:36.080Z,99297.56
2024-02-24T03:29:08.133Z,99291.28
2024-02-24T03:29:40.301Z,99290.53
2024-02-24T03:30:13.351Z,99294.00
2024-02-24T03:30:45.631Z,99292.34
2024-02-24T03:31:17.852Z,99290.22
2024-02-24T03:31:49.951Z,99294.19
2024-02-24T03:32:22.039Z,99296.69
2024-02-24T03:32:54.368Z,99300.81
2024-02-24T03:33:26.622Z,99297.88
2024-02-24T03:33:58.773Z,99295.25
2024-02-24T03:34:31.220Z,99295.09
2024-02-24T03:35:03.375Z,99307.56
2024-02-24T03:35:35.389Z,99304.94
2024-02-24T03:36:12.236Z,99304.94
2024-02-24T03:36:44.260Z,99306.06
2024-02-24T03:37:16.266Z,99301.13
2024-02-24T03:37:49.862Z,99302.91
2024-02-24T03:38:23.391Z,99309.97
2024-02-24T03:38:55.402Z,99307.34
2024-02-24T03:39:27.452Z,99312.28
2024-02-24T03:39:59.443Z,99305.63
2024-02-24T03:40:31.472Z,99307.81
2024-02-24T03:41:03.499Z,99311.09
2024-02-24T03:41:35.548Z,99313.06
2024-02-24T03:42:07.618Z,99312.88
2024-02-24T03:42:39.656Z,99307.81
2024-02-24T03:43:11.644Z,99306.78
2024-02-24T03:43:43.613Z,99302.38
2024-02-24T03:44:16.037Z,99309.16
2024-02-24T03:44:48.247Z,99314.09
2024-02-24T03:45:20.332Z,99312.44
2024-02-24T03:45:52.391Z,99310.63
2024-02-24T03:46:24.565Z,99303.59
2024-02-24T03:46:56.678Z,99307.31
2024-02-24T03:47:28.736Z,99310.94
2024-02-24T03:48:00.978Z,99305.00
2024-02-24T03:48:34.161Z,99302.53
2024-02-24T03:49:06.472Z,99300.88
2024-02-24T03:49:38.606Z,99310.44
2024-02-24T03:50:10.763Z,99311.53
2024-02-24T03:50:43.176Z,99311.84
2024-02-24T03:51:15.591Z,99307.72
2024-02-24T03:51:48.045Z,99310.50
2024-02-24T03:52:20.029Z,99308.00
2024-02-24T03:52:52.139Z,99316.72
2024-02-24T03:53:26.099Z,99305.38
2024-02-24T03:53:58.193Z,99315.88
2024-02-24T03:54:30.471Z,99315.22
2024-02-24T03:55:02.455Z,99308.75
2024-02-24T03:55:34.671Z,99307.13
2024-02-24T03:56:07.283Z,99310.03
2024-02-24T03:56:39.361Z,99309.38
2024-02-24T03:57:11.317Z,99316.56
2024-02-24T03:57:43.268Z,99307.72
2024-02-24T03:58:15.807Z,99303.41
2024-02-24T03:58:47.864Z,99307.31
2024-02-24T03:59:20.115Z,99303.84
2024-02-24T03:59:52.065Z,99311.91
2024-02-24T04:00:24.176Z,99303.34
2024-02-24T04:00:56.249Z,99305.00
2024-02-24T04:01:28.799Z,99305.00
2024-02-24T04:02:00.883Z,99301.53
2024-02-24T04:02:32.925Z,99298.09
2024-02-24T04:03:05.264Z,99293.97
2024-02-24T04:03:37.334Z,99298.53
2024-02-24T04:04:09.437Z,99299.53
2024-02-24T04:04:41.401Z,99296.06
2024-02-24T04:05:13.606Z,99297.03
2024-02-24T04:05:46.182Z,99295.38
2024-02-24T04:06:18.462Z,99298.16
2024-02-24T04:06:50.509Z,99295.69
2024-02-24T04:07:24.909Z,99304.53
2024-02-24T04:07:57.027Z,99303.03
2024-02-24T04:08:31.088Z,99297.78
2024-02-24T04:09:03.308Z,99316.16
2024-02-24T04:09:35.408Z,99306.63
2024-02-24T04:10:08.337Z,99307.63
2024-02-24T04:10:40.448Z,99312.88
2024-02-24T04:11:12.663Z,99306.94
2024-02-24T04:11:44.814Z,99304.44
2024-02-24T04:12:17.158Z,99300.00
2024-02-24T04:12:49.342Z,99305.25
2024-02-24T04:13:21.437Z,99302.50
2024-02-24T04:13:53.382Z,99306.25
2024-02-24T04:14:25.673Z,99298.53
2024-02-24T04:14:57.802Z,99304.59
2024-02-24T04:15:29.907Z,99301.97
2024-02-24T04:16:01.994Z,99297.38
2024-02-24T04:16:34.089Z,99302.63
2024-02-24T04:17:06.109Z,99299.19
2024-02-24T04:17:38.395Z,99300.00
2024-02-24T04:18:10.605Z,99299.88
2024-02-24T04:18:42.874Z,99294.63
2024-02-24T04:19:14.883Z,99289.69
2024-02-24T04:19:46.868Z,99294.94
2024-02-24T04:20:19.127Z,99294.22
2024-02-24T04:20:54.558Z,99291.78
2024-02-24T04:21:26.707Z,99289.94
2024-02-24T04:22:05.245Z,99289.94
2024-02-24T04:22:37.522Z,99294.41
2024-02-24T04:23:09.512Z,99291.09
2024-02-24T04:23:43.129Z,99295.06
2024-02-24T04:24:15.188Z,99291.59
2024-02-24T04:24:47.207Z,99294.22
2024-02-24T04:25:19.345Z,99286.66
2024-02-24T04:25:51.465Z,99281.41
2024-02-24T04:26:23.922Z,99285.53
2024-02-24T04:26:56.036Z,99287.19
2024-02-24T04:27:28.145Z,99291.59
2024-02-24T04:28:00.327Z,99287.31
2024-02-24T04:28:32.844Z,99290.13
2024-02-24T04:29:04.936Z,99289.94
2024-02-24T04:29:37.135Z,99287.06
2024-02-24T04:30:09.563Z,99290.19
2024-02-24T04:30:41.587Z,99290.19
2024-02-24T04:31:13.628Z,99293.34
2024-02-24T04:31:45.605Z,99295.28
2024-02-24T04:32:17.678Z,99292.53
2024-02-24T04:32:49.845Z,99297.25
2024-02-24T04:33:22.070Z,99300.72
2024-02-24T04:33:54.278Z,99296.41
2024-02-24T04:34:26.405Z,99303.47
2024-02-24T04:34:58.394Z,99298.09
2024-02-24T04:35:30.423Z,99296.28
2024-02-24T04:36:02.746Z,99298.75
2024-02-24T04:36:40.272Z,99298.75
2024-02-24T04:37:13.731Z,99296.81
2024-02-24T04:37:45.842Z,99300.09
2024-02-24T04:38:18.210Z,99293.22
2024-02-24T04:38:51.630Z,99294.03
2024-02-24T04:39:23.659Z,99285.34
2024-02-24T04:39:56.108Z,99290.44
2024-02-24T04:40:28.091Z,99289.59
2024-02-24T04:41:01.168Z,99294.03
2024-02-24T04:41:33.168Z,99293.22
2024-02-24T04:42:05.372Z,99293.06
2024-02-24T04:42:37.431Z,99294.56
2024-02-24T04:43:09.486Z,99305.75
2024-02-24T04:43:43.041Z,99299.00
2024-02-24T04:44:15.106Z,99302.91
2024-02-24T04:44:47.170Z,99305.78
2024-02-24T04:45:19.273Z,99310.06
2024-02-24T04:45:51.532Z,99310.50
2024-02-24T04:46:23.552Z,99305.44
2024-02-24T04:46:55.650Z,99312.63
2024-02-24T04:47:31.049Z,99306.00
2024-02-24T04:48:03.949Z,99317.19
2024-02-24T04:48:36.144Z,99314.72
2024-02-24T04:49:08.309Z,99317.34
2024-02-24T04:49:40.365Z,99320.94
2024-02-24T04:50:13.328Z,99323.56
2024-02-24T04:50:45.425Z,99325.06
2024-02-24T04:51:17.481Z,99324.25
2024-02-24T04:51:49.471Z,99336.63
2024-02-24T04:52:21.760Z,99332.06
2024-02-24T04:52:53.829Z,99335.38
2024-02-24T04:53:25.824Z,99342.41
2024-02-24T04:53:59.252Z,99334.97
2024-02-24T04:54:31.292Z,99341.06
2024-02-24T04:55:03.496Z,99341.06
2024-02-24T04:55:35.535Z,99341.75
2024-02-24T04:56:07.786Z,99335.38
2024-02-24T04:56:40.024Z,99338.53
2024-02-24T04:57:12.062Z,99332.84
2024-02-24T04:57:44.620Z,99329.78
2024-02-24T04:58:16.835Z,99324.22
2024-02-24T04:58:48.831Z,99330.00
2024-02-24T04:59:20.821Z,99327.38
2024-02-24T04:59:52.879Z,99330.81
2024-02-24T05:00:24.848Z,99331.13
2024-02-24T05:00:56.899Z,99331.78
2024-02-24T05:01:28.934Z,99331.13
2024-02-24T05:02:00.907Z,99336.38
2024-02-24T05:02:32.907Z,99335.69
2024-02-24T05:03:05.842Z,99340.94
2024-02-24T05:03:37.969Z,99339.00
2024-02-24T05:04:10.012Z,99334.84
2024-02-24T05:04:42.100Z,99335.84
2024-02-24T05:05:14.563Z,99332.22
2024-02-24T05:05:48.094Z,99328.94
2024-02-24T05:06:21.174Z,99327.16
2024-02-24T05:06:53.388Z,99321.38
2024-02-24T05:07:25.496Z,99314.28
2024-02-24T05:07:57.680Z,99316.91
2024-02-24T05:08:30.167Z,99309.19
2024-02-24T05:09:03.715Z,99316.25
2024-02-24T05:09:35.905Z,99317.09
2024-02-24T05:10:08.893Z,99318.03
2024-02-24T05:10:40.972Z,99321.63
2024-02-24T05:11:13.133Z,99323.47
2024-02-24T05:11:45.246Z,99318.34
2024-02-24T05:12:17.373Z,99324.72
2024-02-24T05:12:53.301Z,99321.09
2024-02-24T05:13:25.313Z,99330.94
2024-02-24T05:13:57.324Z,99330.78
2024-02-24T05:14:29.378Z,99336.50
2024-02-24T05:15:01.383Z,99333.06
2024-02-24T05:15:36.651Z,99331.25
2024-02-24T05:16:09.005Z,99331.38
2024-02-24T05:16:41.626Z,99333.06
2024-02-24T05:17:15.564Z,99333.19
2024-02-24T05:17:50.279Z,99334.00
2024-02-24T05:18:22.468Z,99337.78
2024-02-24T05:18:54.545Z,99335.28
2024-02-24T05:19:26.653Z,99342.47
2024-02-24T05:19:58.644Z,99343.47
2024-02-24T05:20:30.810Z,99343.59
2024-02-24T05:21:03.759Z,99336.69
2024-02-24T05:21:37.031Z,99339.47
2024-02-24T05:22:08.946Z,99336.00
2024-02-24T05:22:40.938Z,99341.41
2024-02-24T05:23:13.072Z,99340.44
2024-02-24T05:23:45.107Z,99334.34
2024-02-24T05:24:19.827Z,99344.19
2024-02-24T05:24:51.878Z,99340.72
2024-02-24T05:25:23.866Z,99348.88
2024-02-24T05:25:55.922Z,99342.13
2024-02-24T05:26:29.332Z,99344.63
2024-02-24T05:27:01.386Z,99345.44
2024-02-24T05:27:33.537Z,99340.03
2024-02-24T05:28:05.781Z,99344.31
2024-02-24T05:28:37.826Z,99339.06
2024-02-24T05:29:09.917Z,99348.59
2024-02-24T05:29:46.090Z,99345.00
2024-02-24T05:30:18.064Z,99356.31
2024-02-24T05:30:50.225Z,99360.75
2024-02-24T05:31:22.292Z,99366.69
2024-02-24T05:31:54.282Z,99356.19
2024-02-24T05:32:26.373Z,99354.41
2024-02-24T05:32:59.149Z,99353.56
2024-02-24T05:33:31.588Z,99358.81
2024-02-24T05:34:04.342Z,99360.59
2024-02-24T05:34:36.430Z,99360.75
2024-02-24T05:35:09.314Z,99360.91
2024-02-24T05:35:41.468Z,99367.00
2024-02-24T05:36:13.487Z,99369.44
2024-02-24T05:36:45.639Z,99355.34
2024-02-24T05:37:17.682Z,99367.66
2024-02-24T05:37:49.698Z,99364.91
2024-02-24T05:38:23.297Z,99363.22
2024-02-24T05:38:55.452Z,99363.22
2024-02-24T05:39:28.988Z,99366.16
2024-02-24T05:40:01.112Z,99367.13
2024-02-24T05:40:33.124Z,99375.69
2024-02-24T05:41:05.424Z,99378.84
2024-02-24T05:41:41.250Z,99376.06
2024-02-24T05:42:13.284Z,99379.22
2024-02-24T05:42:45.332Z,99375.94
2024-02-24T05:43:17.419Z,99377.84
2024-02-24T05:43:49.505Z,99387.56
2024-02-24T05:44:21.911Z,99379.41
2024-02-24T05:44:55.170Z,99383.00
2024-02-24T05:45:27.198Z,99377.63
2024-02-24T05:46:02.731Z,99384.53
2024-02-24T05:46:34.974Z,99388.13
2024-02-24T05:47:07.099Z,99384.13
2024-02-24T05:47:40.201Z,99395.03
2024-02-24T05:48:12.363Z,99394.34
2024-02-24T05:48:44.633Z,99396.13
2024-02-24T05:49:16.763Z,99396.59
2024-02-24T05:49:48.786Z,99406.56
2024-02-24T05:50:20.818Z,99410.44
2024-02-24T05:50:54.107Z,99420.94
2024-02-24T05:51:26.238Z,99418.00
2024-02-24T05:51:58.213Z,99422.13
2024-02-24T05:52:30.161Z,99424.47
2024-02-24T05:53:02.324Z,99425.31
2024-02-24T05:53:34.383Z,99426.97
2024-02-24T05:54:06.562Z,99424.03
2024-02-24T05:54:41.839Z,99426.84
2024-02-24T05:55:14.113Z,99424.34
2024-02-24T05:55:46.141Z,99431.53
2024-02-24T05:56:18.182Z,99435.25
2024-02-24T05:56:50.275Z,99432.81
2024-02-24T05:57:22.307Z,99431.97
2024-02-24T05:57:54.395Z,99428.50
2024-02-24T05:58:28.797Z,99428.34
2024-02-24T05:59:02.161Z,99437.06
2024-02-24T05:59:34.573Z,99433.88
2024-02-24T06:00:08.269Z,99433.47
2024-02-24T06:00:40.509Z,99437.94
2024-02-24T06:01:12.502Z,99438.59
2024-02-24T06:01:44.914Z,99442.06
2024-02-24T06:02:16.952Z,99448.28
2024-02-24T06:02:49.084Z,99442.06
2024-02-24T06:03:21.288Z,99447.31
2024-02-24T06:03:54.047Z,99436.69
2024-02-24T06:04:26.051Z,99441.94
2024-02-24T06:04:58.046Z,99434.72
2024-02-24T06:05:30.255Z,99425.88
2024-02-24T06:06:02.483Z,99428.22
2024-02-24T06:06:34.575Z,99432.34
2024-02-24T06:07:06.746Z,99438.72
2024-02-24T06:07:38.878Z,99447.97
2024-02-24T06:08:11.038Z,99442.47
2024-02-24T06:08:43.044Z,99442.72
2024-02-24T06:09:15.138Z,99443.28
2024-02-24T06:09:48.550Z,99451.16
2024-02-24T06:10:20.592Z,99445.91
2024-02-24T06:10:52.720Z,99446.06
2024-02-24T06:11:24.850Z,99444.94
2024-02-24T06:11:58.933Z,99440.38
2024-02-24T06:12:31.366Z,99442.03
2024-02-24T06:13:06.553Z,99438.41
2024-02-24T06:13:38.595Z,99434.72
2024-02-24T06:14:10.875Z,99438.00
2024-02-24T06:14:43.378Z,99437.06
2024-02-24T06:15:15.540Z,99436.50
2024-02-24T06:15:47.491Z,99437.22
2024-02-24T06:16:19.833Z,99437.22
2024-02-24T06:16:51.863Z,99445.91
2024-02-24T06:17:24.392Z,99439.53
2024-02-24T06:17:56.523Z,99442.03
2024-02-24T06:18:29.780Z,99443.00
2024-02-24T06:19:02.132Z,99459.59
2024-02-24T06:19:34.248Z,99457.91
2024-02-24T06:20:07.910Z,99451.16
2024-02-24T06:20:39.997Z,99456.56
2024-02-24T06:21:12.180Z,99459.91